createdAt,value
2023-01-29T00:00:05.428Z,-1.11
2023-01-29T00:16:02.628Z,-1.17
2023-01-29T00:31:04.923Z,-1.22
2023-01-29T00:46:01.936Z,-1.22
2023-01-29T01:00:03.831Z,-1.22
2023-01-29T01:16:01.197Z,-1.28
2023-01-29T01:31:03.362Z,-1.28
2023-01-29T01:46:07.911Z,-1.28
2023-01-29T02:00:02.722Z,-1.28
2023-01-29T02:16:04.997Z,-1.28
2023-01-29T02:31:02.205Z,-1.28
2023-01-29T02:46:04.522Z,-1.33
2023-01-29T03:00:01.430Z,-1.28
2023-01-29T03:16:03.908Z,-1.28
2023-01-29T03:31:06.179Z,-1.33
2023-01-29T03:46:03.236Z,-1.33
2023-01-29T04:00:04.994Z,-1.39
2023-01-29T04:16:02.185Z,-1.39
2023-01-29T04:31:04.730Z,-1.33
2023-01-29T04:46:01.609Z,-1.33
2023-01-29T05:00:03.413Z,-1.39
2023-01-29T05:16:05.743Z,-1.5
2023-01-29T05:31:02.968Z,-1.61
2023-01-29T05:46:04.907Z,-1.67
2023-01-29T06:00:01.905Z,-1.78
2023-01-29T06:16:04.066Z,-2.06
2023-01-29T06:31:20.953Z,-2.28
2023-01-29T06:46:05.779Z,-2.39
2023-01-29T07:00:05.553Z,-2.44
2023-01-29T07:16:03.018Z,-2.67
2023-01-29T07:31:05.253Z,-2.72
2023-01-29T07:46:03.121Z,-2.61
2023-01-29T08:00:04.376Z,-2.39
2023-01-29T08:16:01.703Z,-1.89
2023-01-29T08:31:03.900Z,-1.56
2023-01-29T08:46:01.047Z,-1.22
2023-01-29T09:00:03.071Z,-0.83
2023-01-29T09:16:05.228Z,-0.33
2023-01-29T09:31:02.458Z,-0.33
2023-01-29T09:46:04.500Z,0.06
2023-01-29T10:00:01.411Z,0.5
2023-01-29T10:16:03.741Z,0.72
2023-01-29T10:31:05.860Z,0.94
2023-01-29T10:46:02.914Z,1.28
2023-01-29T11:00:04.982Z,1.56
2023-01-29T11:16:02.273Z,2.06
2023-01-29T11:31:04.448Z,2.56
2023-01-29T11:46:01.811Z,2.67
2023-01-29T12:00:03.507Z,2.89
2023-01-29T12:16:05.655Z,3.06
2023-01-29T12:31:02.880Z,3.17
2023-01-29T12:46:04.914Z,3.39
2023-01-29T13:00:01.823Z,3.72
2023-01-29T13:16:04.293Z,3.78
2023-01-29T13:31:01.257Z,3.94
2023-01-29T13:46:03.864Z,3.83
2023-01-29T14:00:05.598Z,3.78
2023-01-29T14:16:05.344Z,3.72
2023-01-29T14:31:05.237Z,3.67
2023-01-29T14:46:02.275Z,3.33
2023-01-29T15:00:04.413Z,3.11
2023-01-29T15:16:01.657Z,2.56
2023-01-29T15:31:01.382Z,2.06
2023-01-29T15:46:01.170Z,1.56
2023-01-29T16:00:03.987Z,1.06
2023-01-29T16:16:05.545Z,0.72
2023-01-29T16:31:04.505Z,0.44
2023-01-29T16:46:06.051Z,-0.06
2023-01-29T17:00:01.916Z,-0.33
2023-01-29T17:16:04.369Z,-0.78
2023-01-29T17:31:06.650Z,-1.06
2023-01-29T17:46:03.520Z,-1.39
2023-01-29T18:00:05.435Z,-1.72
2023-01-29T18:16:02.671Z,-2
2023-01-29T18:31:05.181Z,-2.22
2023-01-29T18:46:02.175Z,-2.5
2023-01-29T19:00:04.158Z,-2.67
2023-01-29T19:16:01.148Z,-2.83
2023-01-29T19:31:03.509Z,-2.89
2023-01-29T19:46:05.545Z,-2.94
2023-01-29T20:00:02.507Z,-3.06
2023-01-29T20:16:05.072Z,-3.28
2023-01-29T20:31:01.837Z,-3.44
2023-01-29T20:46:04.092Z,-3.67
2023-01-29T21:00:05.875Z,-3.78
2023-01-29T21:16:03.177Z,-3.89
2023-01-29T21:31:05.318Z,-4.06
2023-01-29T21:46:02.395Z,-4.22
2023-01-29T22:00:04.365Z,-4.39
2023-01-29T22:16:02.065Z,-4.61
2023-01-29T22:31:03.965Z,-4.67
2023-01-29T22:46:06.015Z,-4.61
2023-01-29T23:00:03.024Z,-4.28
2023-01-29T23:16:05.182Z,-4.5
2023-01-29T23:31:02.195Z,-4.28
2023-01-29T23:46:04.232Z,-4.44
